createdAt,value
2024-01-04T04:42:53.727Z,93762.00
2024-01-04T04:43:53.733Z,93760.00
2024-01-04T04:44:53.766Z,93759.00
2024-01-04T04:45:53.730Z,93758.00
2024-01-04T04:46:53.745Z,93758.00
2024-01-04T04:47:53.924Z,93763.00
2024-01-04T04:48:53.853Z,93771.00
2024-01-04T04:49:53.781Z,93775.00
2024-01-04T04:50:53.837Z,93779.00
2024-01-04T04:51:53.768Z,93782.00
2024-01-04T04:52:53.758Z,93783.00
2024-01-04T04:53:53.777Z,93779.00
2024-01-04T04:54:53.778Z,93773.00
2024-01-04T04:55:53.773Z,93770.00
2024-01-04T04:56:53.821Z,93770.00
2024-01-04T04:57:53.805Z,93770.00
2024-01-04T04:58:53.795Z,93772.00
2024-01-04T04:59:53.760Z,93773.00
2024-01-04T05:00:53.835Z,93777.00
2024-01-04T05:01:53.774Z,93781.00
2024-01-04T05:02:53.779Z,93785.00
2024-01-04T05:03:53.793Z,93781.00
2024-01-04T05:04:53.780Z,93787.00
2024-01-04T05:05:53.899Z,93783.00
2024-01-04T05:06:53.924Z,93778.00
2024-01-04T05:07:53.794Z,93774.00
2024-01-04T05:08:53.806Z,93774.00
2024-01-04T05:09:53.782Z,93773.00
2024-01-04T05:10:53.795Z,93775.00
2024-01-04T05:11:53.796Z,93779.00
2024-01-04T05:12:53.824Z,93785.00
2024-01-04T05:13:53.784Z,93781.00
2024-01-04T05:14:53.904Z,93782.00
2024-01-04T05:15:53.793Z,93779.00
2024-01-04T05:16:53.768Z,93783.00
2024-01-04T05:17:53.850Z,93789.00
2024-01-04T05:18:53.936Z,93796.00
2024-01-04T05:19:53.906Z,93800.00
2024-01-04T05:20:53.821Z,93804.00
2024-01-04T05:21:53.825Z,93802.00
2024-01-04T05:22:53.806Z,93801.00
2024-01-04T05:23:53.808Z,93803.00
2024-01-04T05:24:53.812Z,93808.00
2024-01-04T05:25:53.779Z,93808.00
2024-01-04T05:26:53.864Z,93809.00
2024-01-04T05:27:53.810Z,93811.00
2024-01-04T05:28:53.801Z,93809.00
2024-01-04T05:29:53.878Z,93810.00
2024-01-04T05:30:53.844Z,93809.00
2024-01-04T05:31:53.820Z,93813.00
2024-01-04T05:32:53.962Z,93819.00
2024-01-04T05:33:53.935Z,93818.00
2024-01-04T05:34:53.819Z,93817.00
2024-01-04T05:35:53.852Z,93821.00
2024-01-04T05:36:53.833Z,93826.00
2024-01-04T05:37:53.809Z,93829.00
2024-01-04T05:38:53.852Z,93836.00
2024-01-04T05:39:53.828Z,93840.00
2024-01-04T05:40:53.830Z,93844.00
2024-01-04T05:41:53.855Z,93848.00
2024-01-04T05:42:53.818Z,93851.00
2024-01-04T05:43:53.831Z,93858.00
2024-01-04T05:44:53.869Z,93857.00
2024-01-04T05:45:53.813Z,93865.00
2024-01-04T05:46:53.815Z,93870.00
2024-01-04T05:47:53.908Z,93874.00
2024-01-04T05:48:54.063Z,93881.00
2024-01-04T05:49:53.923Z,93887.00
2024-01-04T05:50:53.908Z,93889.00
2024-01-04T05:51:53.864Z,93890.00
2024-01-04T05:52:53.834Z,93894.00
2024-01-04T05:53:53.824Z,93893.00
2024-01-04T05:54:53.823Z,93901.00
2024-01-04T05:55:53.804Z,93901.00
2024-01-04T05:56:53.895Z,93900.00
2024-01-04T05:57:53.828Z,93896.00
2024-01-04T05:58:53.824Z,93898.00
2024-01-04T05:59:53.837Z,93898.00
2024-01-04T06:00:53.950Z,93903.00
2024-01-04T06:01:53.852Z,93901.00
2024-01-04T06:02:53.923Z,93895.00
2024-01-04T06:03:53.963Z,93894.00
2024-01-04T06:04:53.828Z,93894.00
2024-01-04T06:05:53.960Z,93891.00
2024-01-04T06:06:53.847Z,93887.00
2024-01-04T06:07:53.850Z,93889.00
2024-01-04T06:08:53.866Z,93889.00
2024-01-04T06:09:53.825Z,93895.00
2024-01-04T06:10:53.848Z,93895.00
2024-01-04T06:11:53.917Z,93897.00
2024-01-04T06:12:53.842Z,93898.00
2024-01-04T06:13:53.915Z,93900.00
2024-01-04T06:14:53.857Z,93903.00
2024-01-04T06:15:53.842Z,93909.00
2024-01-04T06:16:53.854Z,93907.00
2024-01-04T06:17:54.067Z,93912.00
2024-01-04T06:18:53.981Z,93909.00
2024-01-04T06:19:53.874Z,93913.00
2024-01-04T06:20:53.961Z,93914.00
2024-01-04T06:21:53.934Z,93913.00
2024-01-04T06:22:53.893Z,93911.00
2024-01-04T06:23:56.062Z,93910.00
2024-01-04T06:24:53.951Z,93907.00
2024-01-04T06:25:53.952Z,93904.00
2024-01-04T06:26:54.046Z,93902.00
2024-01-04T06:27:54.088Z,93903.00
2024-01-04T06:28:53.992Z,93905.00
2024-01-04T06:29:54.054Z,93907.00
2024-01-04T06:30:54.086Z,93910.00
2024-01-04T06:31:54.104Z,93909.00
2024-01-04T06:32:54.199Z,93907.00
2024-01-04T06:33:54.190Z,93909.00
2024-01-04T06:34:54.113Z,93909.00
2024-01-04T06:35:56.770Z,93914.00
2024-01-04T06:36:54.087Z,93918.00
2024-01-04T06:37:54.080Z,93915.00
2024-01-04T06:38:54.135Z,93914.00
2024-01-04T06:39:54.111Z,93919.00
2024-01-04T06:40:54.125Z,93922.00
2024-01-04T06:41:54.105Z,93926.00
2024-01-04T06:42:54.157Z,93928.00
2024-01-04T06:43:54.076Z,93928.00
2024-01-04T06:44:54.128Z,93925.00
2024-01-04T06:45:54.104Z,93924.00
2024-01-04T06:46:54.116Z,93919.00
2024-01-04T06:47:54.235Z,93919.00
2024-01-04T06:48:54.330Z,93919.00
2024-01-04T06:50:03.441Z,93921.00
2024-01-04T06:50:55.101Z,93921.00
2024-01-04T06:51:54.073Z,93921.00
2024-01-04T06:52:54.120Z,93920.00
2024-01-04T06:53:54.133Z,93925.00
2024-01-04T06:54:54.122Z,93932.00
2024-01-04T06:55:54.156Z,93942.00
2024-01-04T06:56:54.174Z,93948.00
2024-01-04T06:57:54.138Z,93948.00
2024-01-04T06:58:54.100Z,93953.00
2024-01-04T06:59:54.174Z,93956.00
2024-01-04T07:00:54.169Z,93962.00
2024-01-04T07:01:54.118Z,93959.00
2024-01-04T07:02:54.147Z,93959.00
2024-01-04T07:03:54.180Z,93961.00
2024-01-04T07:04:54.162Z,93961.00
2024-01-04T07:05:54.269Z,93962.00
2024-01-04T07:06:54.118Z,93964.00
2024-01-04T07:07:54.114Z,93967.00
2024-01-04T07:08:54.151Z,93967.00
2024-01-04T07:09:54.126Z,93977.00
2024-01-04T07:10:54.125Z,93983.00
2024-01-04T07:11:54.179Z,93985.00
2024-01-04T07:12:54.130Z,93987.00
2024-01-04T07:13:54.136Z,93983.00
2024-01-04T07:14:54.185Z,93985.00
2024-01-04T07:15:54.125Z,93983.00
2024-01-04T07:16:54.149Z,93983.00
2024-01-04T07:17:54.339Z,93980.00
2024-01-04T07:18:54.316Z,93982.00
2024-01-04T07:19:54.189Z,93985.00
2024-01-04T07:20:54.173Z,93985.00
2024-01-04T07:21:54.167Z,93986.00
2024-01-04T07:22:54.147Z,93981.00
2024-01-04T07:23:54.155Z,93985.00
2024-01-04T07:24:54.190Z,93985.00
2024-01-04T07:25:54.205Z,93983.00
2024-01-04T07:26:54.244Z,93981.00
2024-01-04T07:27:54.225Z,93978.00
2024-01-04T07:28:54.268Z,93978.00
2024-01-04T07:29:54.296Z,93981.00
2024-01-04T07:30:54.384Z,93984.00
2024-01-04T07:31:54.314Z,93985.00
2024-01-04T07:32:54.445Z,93984.00
2024-01-04T07:33:54.426Z,93983.00
2024-01-04T07:35:03.581Z,93986.00
2024-01-04T07:35:55.524Z,93990.00
2024-01-04T07:36:54.359Z,93988.00
2024-01-04T07:37:54.374Z,93987.00
2024-01-04T07:38:54.424Z,93989.00
2024-01-04T07:39:54.367Z,93985.00
2024-01-04T07:40:54.370Z,93983.00
2024-01-04T07:41:54.407Z,93985.00
2024-01-04T07:42:54.352Z,93990.00
2024-01-04T07:43:54.407Z,93989.00
2024-01-04T07:45:02.344Z,93988.00
2024-01-04T07:45:55.517Z,93985.00
2024-01-04T07:46:54.385Z,93983.00
2024-01-04T07:47:54.531Z,93986.00
2024-01-04T07:48:57.129Z,93984.00
2024-01-04T07:49:54.417Z,93987.00
2024-01-04T07:50:54.444Z,93988.00
2024-01-04T07:51:54.369Z,93990.00
2024-01-04T07:52:54.385Z,93988.00
2024-01-04T07:53:54.427Z,93990.00
2024-01-04T07:54:54.450Z,93991.00
2024-01-04T07:55:54.420Z,93996.00
2024-01-04T07:56:54.426Z,93998.00
2024-01-04T07:57:54.382Z,93993.00
2024-01-04T07:58:54.392Z,93996.00
2024-01-04T07:59:54.449Z,93999.00
2024-01-04T08:00:54.395Z,93999.00
2024-01-04T08:01:54.410Z,93996.00
2024-01-04T08:02:54.460Z,93997.00
2024-01-04T08:03:54.428Z,93994.00
2024-01-04T08:04:54.414Z,93999.00
2024-01-04T08:05:54.449Z,93997.00
2024-01-04T08:06:54.569Z,93998.00
2024-01-04T08:07:54.397Z,93999.00
2024-01-04T08:08:54.480Z,93998.00
2024-01-04T08:09:54.397Z,93998.00
2024-01-04T08:10:54.424Z,93998.00
2024-01-04T08:11:54.451Z,93998.00
2024-01-04T08:12:54.387Z,93996.00
2024-01-04T08:13:54.409Z,93998.00
2024-01-04T08:14:54.462Z,94004.00
2024-01-04T08:15:54.419Z,94007.00
2024-01-04T08:16:54.398Z,94010.00
2024-01-04T08:17:54.580Z,94010.00
2024-01-04T08:18:54.684Z,94009.00
2024-01-04T08:19:54.530Z,94008.00
2024-01-04T08:20:54.484Z,94011.00
2024-01-04T08:21:54.426Z,94015.00
2024-01-04T08:22:54.421Z,94016.00
2024-01-04T08:23:54.457Z,94018.00
2024-01-04T08:24:54.397Z,94023.00
2024-01-04T08:25:54.468Z,94026.00
2024-01-04T08:26:54.449Z,94030.00
2024-01-04T08:27:54.458Z,94036.00
2024-01-04T08:28:54.462Z,94036.00
2024-01-04T08:29:54.555Z,94039.00
2024-01-04T08:30:54.660Z,94041.00
2024-01-04T08:31:54.410Z,94041.00
2024-01-04T08:32:54.615Z,94041.00
2024-01-04T08:33:54.621Z,94041.00
2024-01-04T08:34:54.466Z,94039.00
2024-01-04T08:35:54.499Z,94037.00
2024-01-04T08:36:54.413Z,94043.00
2024-01-04T08:37:54.436Z,94040.00
2024-01-04T08:38:54.485Z,94041.00
2024-01-04T08:39:54.478Z,94040.00
2024-01-04T08:40:54.462Z,94042.00
2024-01-04T08:41:54.450Z,94043.00
2024-01-04T08:42:54.454Z,94045.00
2024-01-04T08:43:54.423Z,94046.00
2024-01-04T08:44:54.483Z,94048.00
2024-01-04T08:45:54.477Z,94050.00
2024-01-04T08:46:54.445Z,94050.00
2024-01-04T08:47:54.509Z,94048.00
2024-01-04T08:48:54.619Z,94046.00
2024-01-04T08:49:54.635Z,94044.00
2024-01-04T08:50:54.522Z,94043.00
2024-01-04T08:51:54.438Z,94044.00
2024-01-04T08:52:54.451Z,94043.00
2024-01-04T08:53:54.515Z,94041.00
2024-01-04T08:54:54.530Z,94039.00
2024-01-04T08:55:54.475Z,94037.00
2024-01-04T08:56:54.482Z,94044.00
2024-01-04T08:57:54.443Z,94048.00
2024-01-04T08:58:54.502Z,94048.00
2024-01-04T08:59:54.566Z,94048.00
2024-01-04T09:00:54.659Z,94046.00
2024-01-04T09:01:54.630Z,94044.00
2024-01-04T09:02:54.709Z,94047.00
2024-01-04T09:03:54.726Z,94049.00
2024-01-04T09:04:54.709Z,94052.00
2024-01-04T09:05:54.761Z,94058.00
2024-01-04T09:06:54.821Z,94061.00
2024-01-04T09:07:54.851Z,94058.00
2024-01-04T09:08:54.947Z,94062.00
2024-01-04T09:09:54.938Z,94061.00
2024-01-04T09:10:54.918Z,94069.00
2024-01-04T09:11:55.049Z,94068.00
2024-01-04T09:12:55.051Z,94061.00
2024-01-04T09:13:55.074Z,94058.00
2024-01-04T09:14:55.109Z,94060.00
2024-01-04T09:15:55.100Z,94067.00
2024-01-04T09:16:55.139Z,94066.00
2024-01-04T09:17:55.190Z,94068.00
2024-01-04T09:18:55.390Z,94073.00
2024-01-04T09:19:55.331Z,94076.00
2024-01-04T09:20:55.278Z,94076.00
2024-01-04T09:21:55.272Z,94076.00
2024-01-04T09:22:55.401Z,94075.00
2024-01-04T09:23:55.373Z,94075.00
2024-01-04T09:24:55.318Z,94079.00
2024-01-04T09:25:55.351Z,94078.00
2024-01-04T09:26:55.414Z,94076.00
2024-01-04T09:27:55.367Z,94073.00
2024-01-04T09:28:55.410Z,94072.00
2024-01-04T09:29:55.428Z,94074.00
2024-01-04T09:30:55.519Z,94067.00
2024-01-04T09:31:55.487Z,94065.00
2024-01-04T09:32:55.593Z,94061.00
2024-01-04T09:33:55.673Z,94059.00
2024-01-04T09:34:55.490Z,94062.00
2024-01-04T09:35:55.636Z,94059.00
2024-01-04T09:36:55.685Z,94057.00
2024-01-04T09:37:55.585Z,94057.00
2024-01-04T09:38:55.784Z,94059.00
2024-01-04T09:39:55.551Z,94057.00
2024-01-04T09:40:55.652Z,94057.00
2024-01-04T09:41:55.673Z,94059.00
2024-01-04T09:42:56.158Z,94063.00
2024-01-04T09:43:55.623Z,94061.00
2024-01-04T09:44:55.713Z,94059.00
2024-01-04T09:45:55.689Z,94063.00
2024-01-04T09:46:55.696Z,94070.00
2024-01-04T09:47:55.819Z,94067.00
2024-01-04T09:48:55.785Z,94064.00
2024-01-04T09:49:55.954Z,94064.00
2024-01-04T09:50:55.791Z,94068.00
2024-01-04T09:51:55.658Z,94073.00
2024-01-04T09:52:55.725Z,94067.00
2024-01-04T09:53:55.767Z,94074.00
2024-01-04T09:54:55.750Z,94074.00
2024-01-04T09:55:58.018Z,94068.00
2024-01-04T09:56:55.897Z,94068.00
2024-01-04T09:57:55.904Z,94070.00
2024-01-04T09:58:55.855Z,94068.00
2024-01-04T09:59:55.888Z,94070.00
2024-01-04T10:00:55.951Z,94069.00
2024-01-04T10:01:55.878Z,94071.00
2024-01-04T10:02:55.914Z,94076.00
2024-01-04T10:03:55.937Z,94076.00
2024-01-04T10:04:56.621Z,94081.00
2024-01-04T10:05:56.023Z,94081.00
2024-01-04T10:06:55.969Z,94085.00
2024-01-04T10:07:56.037Z,94084.00
2024-01-04T10:08:56.093Z,94083.00
2024-01-04T10:09:56.168Z,94084.00
2024-01-04T10:10:56.223Z,94082.00
2024-01-04T10:11:56.363Z,94079.00
2024-01-04T10:12:56.313Z,94086.00
2024-01-04T10:13:56.386Z,94082.00
2024-01-04T10:14:56.515Z,94077.00
2024-01-04T10:15:56.542Z,94079.00
2024-01-04T10:16:56.547Z,94083.00
2024-01-04T10:17:56.805Z,94079.00
2024-01-04T10:18:56.847Z,94076.00
2024-01-04T10:19:56.805Z,94081.00
2024-01-04T10:20:56.907Z,94082.00
2024-01-04T10:21:56.926Z,94087.00
2024-01-04T10:22:56.988Z,94089.00
2024-01-04T10:23:57.074Z,94091.00
2024-01-04T10:24:57.147Z,94089.00
2024-01-04T10:25:57.168Z,94091.00
2024-01-04T10:26:57.275Z,94094.00
2024-01-04T10:27:57.304Z,94090.00
2024-01-04T10:28:57.351Z,94088.00
2024-01-04T10:29:57.386Z,94091.00
2024-01-04T10:30:57.560Z,94088.00
2024-01-04T10:31:57.473Z,94089.00
2024-01-04T10:32:57.683Z,94090.00
2024-01-04T10:33:57.684Z,94089.00
2024-01-04T10:34:57.612Z,94088.00
2024-01-04T10:35:57.711Z,94084.00
2024-01-04T10:36:57.669Z,94083.00
2024-01-04T10:37:57.733Z,94082.00
2024-01-04T10:38:57.766Z,94080.00
2024-01-04T10:39:57.835Z,94079.00
2024-01-04T10:40:57.829Z,94080.00
2024-01-04T10:41:57.950Z,94085.00
2024-01-04T10:42:57.911Z,94083.00
2024-01-04T10:43:57.932Z,94086.00
2024-01-04T10:44:58.049Z,94085.00
2024-01-04T10:45:57.968Z,94089.00
2024-01-04T10:46:58.015Z,94080.00
2024-01-04T10:47:58.194Z,94076.00
2024-01-04T10:48:58.158Z,94075.00
2024-01-04T10:49:58.094Z,94069.00
2024-01-04T10:50:58.096Z,94066.00
2024-01-04T10:51:58.068Z,94068.00
2024-01-04T10:52:58.076Z,94067.00
2024-01-04T10:53:58.135Z,94066.00
2024-01-04T10:54:58.091Z,94064.00
2024-01-04T10:55:58.095Z,94058.00
2024-01-04T10:56:58.172Z,94052.00
2024-01-04T10:57:58.133Z,94049.00
2024-01-04T10:58:58.158Z,94046.00
2024-01-04T10:59:58.174Z,94042.00
2024-01-04T11:00:58.231Z,94041.00
2024-01-04T11:01:58.243Z,94041.00
2024-01-04T11:02:58.204Z,94040.00
2024-01-04T11:03:58.259Z,94043.00
2024-01-04T11:04:58.239Z,94042.00
2024-01-04T11:05:58.283Z,94046.00
2024-01-04T11:06:58.321Z,94046.00
2024-01-04T11:07:58.299Z,94046.00
2024-01-04T11:08:58.337Z,94047.00
2024-01-04T11:09:58.347Z,94048.00
2024-01-04T11:10:58.395Z,94050.00
2024-01-04T11:11:58.491Z,94052.00
2024-01-04T11:12:58.608Z,94054.00
2024-01-04T11:13:58.618Z,94052.00
2024-01-04T11:14:58.809Z,94054.00
2024-01-04T11:15:58.801Z,94053.00
2024-01-04T11:16:58.860Z,94054.00
2024-01-04T11:17:58.984Z,94053.00
2024-01-04T11:18:59.094Z,94056.00
2024-01-04T11:19:59.053Z,94056.00
2024-01-04T11:20:59.083Z,94057.00
2024-01-04T11:21:59.143Z,94059.00
2024-01-04T11:22:59.181Z,94062.00
2024-01-04T11:23:59.287Z,94059.00
2024-01-04T11:24:59.319Z,94057.00
2024-01-04T11:25:59.364Z,94061.00
2024-01-04T11:26:59.508Z,94068.00
2024-01-04T11:27:59.522Z,94069.00
2024-01-04T11:28:59.582Z,94073.00
2024-01-04T11:29:59.664Z,94074.00
2024-01-04T11:30:59.713Z,94078.00
2024-01-04T11:31:59.744Z,94074.00
2024-01-04T11:32:59.930Z,94076.00
2024-01-04T11:34:00.139Z,94078.00
2024-01-04T11:34:59.957Z,94080.00
2024-01-04T11:36:00.040Z,94080.00
2024-01-04T11:37:00.076Z,94078.00
2024-01-04T11:38:00.114Z,94081.00
2024-01-04T11:39:00.276Z,94079.00
2024-01-04T11:40:00.289Z,94085.00
2024-01-04T11:41:00.354Z,94083.00
2024-01-04T11:42:00.377Z,94081.00
2024-01-04T11:43:00.323Z,94089.00
2024-01-04T11:44:00.378Z,94085.00
2024-01-04T11:45:00.525Z,94088.00
2024-01-04T11:46:00.431Z,94092.00
2024-01-04T11:47:00.447Z,94095.00
2024-01-04T11:48:00.600Z,94099.00
2024-01-04T11:49:00.877Z,94104.00
2024-01-04T11:50:08.761Z,94111.00
2024-01-04T11:51:01.522Z,94113.00
2024-01-04T11:52:00.520Z,94113.00
2024-01-04T11:53:00.477Z,94113.00
2024-01-04T11:54:00.555Z,94108.00
2024-01-04T11:55:00.541Z,94116.00
2024-01-04T11:56:00.491Z,94115.00
2024-01-04T11:57:00.546Z,94115.00
2024-01-04T11:58:00.512Z,94118.00
2024-01-04T11:59:00.512Z,94114.00
2024-01-04T12:00:00.693Z,94112.00
2024-01-04T12:01:00.623Z,94109.00
2024-01-04T12:02:00.545Z,94106.00
2024-01-04T12:03:00.534Z,94113.00
2024-01-04T12:04:00.539Z,94114.00
2024-01-04T12:05:00.555Z,94105.00
2024-01-04T12:06:00.684Z,94104.00
2024-01-04T12:07:00.673Z,94096.00
2024-01-04T12:08:00.709Z,94093.00
2024-01-04T12:09:00.790Z,94078.00
2024-01-04T12:10:00.881Z,94075.00
2024-01-04T12:11:00.904Z,94070.00
2024-01-04T12:12:00.933Z,94063.00
2024-01-04T12:13:00.964Z,94064.00
2024-01-04T12:14:01.030Z,94066.00
2024-01-04T12:15:01.188Z,94066.00
2024-01-04T12:16:01.097Z,94070.00
2024-01-04T12:17:01.134Z,94066.00
2024-01-04T12:18:01.274Z,94066.00
2024-01-04T12:19:01.262Z,94067.00
2024-01-04T12:20:01.382Z,94068.00
2024-01-04T12:21:11.259Z,94064.00
2024-01-04T12:22:02.287Z,94058.00
2024-01-04T12:23:01.290Z,94056.00
2024-01-04T12:24:01.297Z,94055.00
2024-01-04T12:25:01.243Z,94056.00
2024-01-04T12:26:01.263Z,94058.00
2024-01-04T12:27:01.291Z,94058.00
2024-01-04T12:28:01.259Z,94053.00
2024-01-04T12:29:01.231Z,94054.00
2024-01-04T12:30:01.272Z,94057.00
2024-01-04T12:31:01.364Z,94054.00
2024-01-04T12:32:01.506Z,94054.00
2024-01-04T12:33:01.288Z,94057.00
2024-01-04T12:34:01.418Z,94063.00
2024-01-04T12:35:01.293Z,94066.00
2024-01-04T12:36:01.842Z,94067.00
2024-01-04T12:37:01.301Z,94070.00
2024-01-04T12:38:01.360Z,94073.00
2024-01-04T12:39:01.428Z,94071.00
2024-01-04T12:40:01.533Z,94071.00
2024-01-04T12:41:01.535Z,94076.00
2024-01-04T12:42:01.610Z,94076.00
2024-01-04T12:43:01.647Z,94080.00
2024-01-04T12:44:01.709Z,94079.00
2024-01-04T12:45:01.802Z,94081.00
2024-01-04T12:46:01.811Z,94086.00
2024-01-04T12:47:01.949Z,94089.00
2024-01-04T12:48:02.198Z,94097.00
2024-01-04T12:49:02.177Z,94099.00
2024-01-04T12:50:02.143Z,94100.00
2024-01-04T12:51:02.196Z,94098.00
2024-01-04T12:52:02.196Z,94101.00
2024-01-04T12:53:02.229Z,94099.00
2024-01-04T12:54:02.283Z,94102.00
2024-01-04T12:55:02.276Z,94099.00
2024-01-04T12:56:02.312Z,94098.00
2024-01-04T12:57:02.352Z,94099.00
2024-01-04T12:58:02.346Z,94098.00
2024-01-04T12:59:02.365Z,94097.00
2024-01-04T13:00:02.502Z,94094.00
2024-01-04T13:01:02.385Z,94100.00
2024-01-04T13:02:02.387Z,94100.00
2024-01-04T13:03:02.420Z,94101.00
2024-01-04T13:04:02.648Z,94104.00
2024-01-04T13:05:02.447Z,94101.00
2024-01-04T13:06:02.577Z,94104.00
2024-01-04T13:07:02.573Z,94102.00
2024-01-04T13:08:02.473Z,94099.00
2024-01-04T13:09:02.578Z,94099.00
2024-01-04T13:10:02.603Z,94096.00
2024-01-04T13:11:02.651Z,94092.00
2024-01-04T13:12:02.715Z,94087.00
2024-01-04T13:13:02.752Z,94089.00
2024-01-04T13:14:02.819Z,94088.00
2024-01-04T13:15:02.999Z,94087.00
2024-01-04T13:16:03.073Z,94087.00
2024-01-04T13:17:02.981Z,94084.00
2024-01-04T13:18:03.139Z,94082.00
2024-01-04T13:19:03.210Z,94082.00
2024-01-04T13:20:03.186Z,94085.00
2024-01-04T13:21:03.111Z,94087.00
2024-01-04T13:22:03.150Z,94086.00
2024-01-04T13:23:03.182Z,94087.00
2024-01-04T13:24:03.182Z,94089.00
2024-01-04T13:25:03.205Z,94090.00
2024-01-04T13:26:03.248Z,94090.00
2024-01-04T13:27:03.211Z,94089.00
2024-01-04T13:28:03.218Z,94094.00
2024-01-04T13:29:03.276Z,94089.00
2024-01-04T13:30:03.344Z,94093.00
2024-01-04T13:31:03.329Z,94094.00
2024-01-04T13:32:03.295Z,94095.00
2024-01-04T13:33:03.420Z,94100.00
2024-01-04T13:34:03.559Z,94100.00
2024-01-04T13:35:03.372Z,94104.00
2024-01-04T13:36:03.429Z,94109.00
2024-01-04T13:37:03.483Z,94108.00
2024-01-04T13:38:06.264Z,94108.00
2024-01-04T13:39:03.426Z,94108.00
2024-01-04T13:40:03.382Z,94111.00
2024-01-04T13:41:03.420Z,94112.00
2024-01-04T13:42:03.449Z,94111.00
2024-01-04T13:43:03.409Z,94114.00
2024-01-04T13:44:03.419Z,94114.00
2024-01-04T13:45:03.523Z,94116.00
2024-01-04T13:46:03.437Z,94116.00
2024-01-04T13:47:05.407Z,94112.00
2024-01-04T13:48:03.518Z,94113.00
2024-01-04T13:49:03.466Z,94114.00
2024-01-04T13:50:03.527Z,94115.00
2024-01-04T13:51:03.496Z,94121.00
2024-01-04T13:52:03.422Z,94123.00
2024-01-04T13:53:03.447Z,94123.00
2024-01-04T13:54:03.395Z,94122.00
2024-01-04T13:55:03.412Z,94124.00
2024-01-04T13:56:03.418Z,94125.00
2024-01-04T13:57:03.435Z,94126.00
2024-01-04T13:58:03.400Z,94131.00
2024-01-04T13:59:03.413Z,94128.00
2024-01-04T14:00:03.449Z,94132.00
2024-01-04T14:01:03.536Z,94129.00
2024-01-04T14:02:03.455Z,94129.00
2024-01-04T14:03:03.562Z,94133.00
2024-01-04T14:04:03.506Z,94131.00
2024-01-04T14:05:03.486Z,94131.00
2024-01-04T14:06:03.640Z,94133.00
2024-01-04T14:07:03.515Z,94135.00
2024-01-04T14:08:03.418Z,94135.00
2024-01-04T14:09:03.613Z,94139.00
2024-01-04T14:10:03.403Z,94140.00
2024-01-04T14:11:03.443Z,94138.00
2024-01-04T14:12:03.493Z,94134.00
2024-01-04T14:13:03.469Z,94129.00
2024-01-04T14:14:03.484Z,94132.00
2024-01-04T14:15:03.507Z,94129.00
2024-01-04T14:16:03.424Z,94132.00
2024-01-04T14:17:03.432Z,94134.00
2024-01-04T14:18:03.541Z,94133.00
2024-01-04T14:19:03.456Z,94137.00
2024-01-04T14:20:03.838Z,94134.00
2024-01-04T14:21:03.480Z,94134.00
2024-01-04T14:22:03.461Z,94137.00
2024-01-04T14:23:03.447Z,94137.00
2024-01-04T14:24:03.580Z,94138.00
2024-01-04T14:25:03.438Z,94134.00
2024-01-04T14:26:03.466Z,94134.00
2024-01-04T14:27:03.470Z,94132.00
2024-01-04T14:28:03.469Z,94133.00
2024-01-04T14:29:03.493Z,94132.00
2024-01-04T14:30:03.490Z,94135.00
2024-01-04T14:31:03.483Z,94134.00
2024-01-04T14:32:03.450Z,94134.00
2024-01-04T14:33:03.672Z,94132.00
2024-01-04T14:34:03.646Z,94126.00
2024-01-04T14:35:03.571Z,94123.00
2024-01-04T14:36:03.494Z,94117.00
2024-01-04T14:37:03.495Z,94117.00
2024-01-04T14:38:03.476Z,94117.00
2024-01-04T14:39:03.462Z,94117.00
2024-01-04T14:40:03.547Z,94120.00
2024-01-04T14:41:03.444Z,94123.00
2024-01-04T14:42:03.497Z,94122.00
2024-01-04T14:43:03.465Z,94124.00
2024-01-04T14:44:03.471Z,94128.00
2024-01-04T14:45:03.525Z,94124.00
2024-01-04T14:46:03.443Z,94122.00
2024-01-04T14:47:03.466Z,94121.00
2024-01-04T14:48:03.574Z,94118.00
2024-01-04T14:49:03.654Z,94122.00
2024-01-04T14:50:03.572Z,94126.00
2024-01-04T14:51:03.624Z,94128.00
2024-01-04T14:52:03.508Z,94128.00
2024-01-04T14:53:03.472Z,94131.00
2024-01-04T14:54:03.533Z,94131.00
2024-01-04T14:55:03.535Z,94134.00
2024-01-04T14:56:03.598Z,94133.00
2024-01-04T14:57:03.685Z,94131.00
2024-01-04T14:58:03.693Z,94131.00
2024-01-04T14:59:03.773Z,94133.00
2024-01-04T15:00:03.884Z,94132.00
2024-01-04T15:01:03.874Z,94137.00
2024-01-04T15:02:03.937Z,94138.00
2024-01-04T15:03:04.076Z,94136.00
2024-01-04T15:04:04.094Z,94140.00
2024-01-04T15:05:04.207Z,94144.00
2024-01-04T15:06:04.230Z,94146.00
2024-01-04T15:07:06.128Z,94143.00
2024-01-04T15:08:04.257Z,94142.00
2024-01-04T15:09:04.310Z,94140.00
2024-01-04T15:10:04.256Z,94138.00
2024-01-04T15:11:04.264Z,94136.00
2024-01-04T15:12:04.340Z,94138.00
2024-01-04T15:13:04.281Z,94140.00
2024-01-04T15:14:04.248Z,94143.00
2024-01-04T15:15:04.306Z,94144.00
2024-01-04T15:16:04.243Z,94143.00
2024-01-04T15:17:04.286Z,94141.00
2024-01-04T15:18:04.412Z,94135.00
2024-01-04T15:19:04.389Z,94134.00
2024-01-04T15:20:04.488Z,94131.00
2024-01-04T15:21:04.362Z,94130.00
2024-01-04T15:22:04.281Z,94129.00
2024-01-04T15:23:04.312Z,94129.00
2024-01-04T15:24:04.313Z,94131.00
2024-01-04T15:25:04.293Z,94132.00
2024-01-04T15:26:04.268Z,94132.00
2024-01-04T15:27:04.356Z,94132.00
2024-01-04T15:28:04.328Z,94134.00
2024-01-04T15:29:04.390Z,94130.00
2024-01-04T15:30:04.524Z,94130.00
2024-01-04T15:31:04.515Z,94127.00
2024-01-04T15:32:04.541Z,94128.00
2024-01-04T15:33:04.703Z,94127.00
2024-01-04T15:34:04.719Z,94129.00
2024-01-04T15:35:04.743Z,94129.00
2024-01-04T15:36:04.778Z,94129.00
2024-01-04T15:37:04.864Z,94127.00
2024-01-04T15:38:04.957Z,94127.00
2024-01-04T15:39:05.039Z,94129.00
2024-01-04T15:40:05.063Z,94132.00
2024-01-04T15:41:05.105Z,94134.00
2024-01-04T15:42:05.229Z,94134.00
2024-01-04T15:43:05.309Z,94136.00
2024-01-04T15:44:05.294Z,94136.00
2024-01-04T15:45:05.382Z,94134.00
2024-01-04T15:46:05.419Z,94135.00
2024-01-04T15:47:05.467Z,94136.00
2024-01-04T15:48:05.678Z,94134.00
2024-01-04T15:49:05.695Z,94133.00
2024-01-04T15:50:05.667Z,94130.00
2024-01-04T15:51:05.812Z,94128.00
2024-01-04T15:52:05.774Z,94124.00
2024-01-04T15:53:05.843Z,94123.00
2024-01-04T15:54:05.890Z,94125.00
2024-01-04T15:55:06.107Z,94128.00
2024-01-04T15:56:05.930Z,94124.00
2024-01-04T15:57:05.999Z,94121.00
2024-01-04T15:58:06.025Z,94120.00
2024-01-04T15:59:06.092Z,94121.00
2024-01-04T16:00:06.143Z,94126.00
2024-01-04T16:01:06.263Z,94130.00
2024-01-04T16:02:06.259Z,94133.00
2024-01-04T16:03:06.217Z,94129.00
2024-01-04T16:04:06.238Z,94128.00
2024-01-04T16:05:06.259Z,94127.00
2024-01-04T16:06:06.301Z,94126.00
2024-01-04T16:07:06.434Z,94128.00
2024-01-04T16:08:06.284Z,94126.00
2024-01-04T16:09:06.296Z,94127.00
2024-01-04T16:10:06.285Z,94127.00
2024-01-04T16:11:06.264Z,94122.00
2024-01-04T16:12:06.319Z,94123.00
2024-01-04T16:13:06.315Z,94121.00
2024-01-04T16:14:06.322Z,94119.00
2024-01-04T16:15:06.428Z,94123.00
2024-01-04T16:16:06.371Z,94123.00
2024-01-04T16:17:06.375Z,94119.00
2024-01-04T16:18:06.576Z,94117.00
2024-01-04T16:19:06.487Z,94119.00
2024-01-04T16:20:06.586Z,94120.00
2024-01-04T16:21:06.435Z,94125.00
2024-01-04T16:22:06.400Z,94128.00
2024-01-04T16:23:06.536Z,94129.00
2024-01-04T16:24:06.517Z,94127.00
2024-01-04T16:25:06.468Z,94125.00
2024-01-04T16:26:06.447Z,94125.00
2024-01-04T16:27:06.546Z,94123.00